Have a Safe July 4th! 

Flight Track Log - Related Links

Times and Time Zones

All times are in EDT time to prevent confusion due to time zone crossing. See the UAL582 flight status page for this flight to view local times or setup timezone preferences in your user account.

Time Position Orientation Groundspeed Altitude Reporting Facility
EDT Latitude Longitude Course Direction KTS MPH feet Rate Location/Type
Sat 09:31:08 PM 41.9500 -87.9500 180° South 164 189 2,400  Level Chicago TRACON
Sat 09:32:00 PM 41.7696 -87.8085 180° South  Level Estimated
Sat 09:32:09 PM 41.9167 -87.9833 217° Southwest 199 229 3,700  Level Chicago TRACON
Sat 09:33:00 PM 41.6636 -87.7597 180° South  Level Estimated
Sat 09:33:34 PM 41.8167 -87.9919 184° South 254 292 7,100  Level Chicago Center
Sat 09:34:00 PM 41.5575 -87.7110 176° South  Level Estimated
Sat 09:34:36 PM 41.7383 -87.9769 172° South 284 327 10,200  Level Chicago Center
Sat 09:35:00 PM 41.4515 -87.6625 180° South  Level Estimated
Sat 09:35:37 PM 41.6603 -87.9539 168° South 286 329 13,200  Level Chicago Center
Sat 09:36:00 PM 41.3454 -87.6141 180° South  Level Estimated
Sat 09:36:38 PM 41.5725 -87.9444 175° South 326 375 15,200  Level Chicago Center
Sat 09:37:39 PM 41.4653 -87.9367 177° South 375 432 17,000 3,000 Climbing Chicago Center
Sat 09:38:40 PM 41.3486 -87.9308 178° South 405 466 21,300 3,512 Climbing Chicago Center
Sat 09:39:42 PM 41.2419 -87.9261 178° South 388 447 24,200 2,732 Climbing Chicago Center
Sat 09:40:43 PM 41.1358 -87.9211 178° South 384 442 26,900 1,525 Climbing Chicago Center
Sat 09:41:44 PM 41.0267 -87.9136 177° South 388 447 27,300 689 Climbing Chicago Center
Sat 09:42:45 PM 40.8853 -87.9058 178° South 417 480 28,300 1,033 Climbing Chicago Center
Sat 09:43:46 PM 40.7642 -87.8733 169° South 444 511 29,400 1,426 Climbing Chicago Center
Sat 09:44:47 PM 40.6442 -87.8406 168° South 444 511 31,200 1,820 Climbing Chicago Center
Sat 09:45:48 PM 40.5319 -87.8081 168° South 426 490 33,100 1,328 Climbing Chicago Center
Sat 09:46:49 PM 40.4200 -87.7781 168° South 415 478 33,900 836 Climbing Chicago Center
Sat 09:47:50 PM 40.3064 -87.7475 168° South 416 479 34,800 976 Climbing Chicago Center
Sat 09:48:52 PM 40.1933 -87.7158 168° South 420 483 35,900 944 Climbing Chicago Center
Sat 09:49:38 PM 40.1003 -87.6933 170° South 414 476 36,500 617 Climbing Indianapolis Center
Sat 09:50:39 PM 39.9864 -87.6636 169° South 419 482 37,000 246 Climbing Indianapolis Center
Sat 09:51:40 PM 39.8725 -87.6333 168° South 421 484 37,000  Level Indianapolis Center
Sat 09:52:41 PM 39.7578 -87.6017 168° South 422 486 37,000  Level Indianapolis Center
Sat 09:53:42 PM 39.6428 -87.5719 169° South 424 488 37,000  Level Indianapolis Center
Sat 09:54:43 PM 39.5067 -87.5353 168° South 421 484 37,000  Level Indianapolis Center
Sat 09:55:44 PM 39.3953 -87.5058 168° South 416 479 37,000 -49 Level Indianapolis Center
Sat 09:56:45 PM 39.2850 -87.4761 168° South 408 470 36,900  Descending Indianapolis Center
Sat 09:57:45 PM 39.1717 -87.4481 169° South 414 476 37,000 50 Climbing Indianapolis Center
Sat 09:58:46 PM 39.0519 -87.4167 168° South 426 490 37,000 49 Level Indianapolis Center
Sat 09:59:47 PM 38.9347 -87.3861 169° South 428 493 37,100  Climbing Indianapolis Center
Sat 10:00:48 PM 38.8169 -87.3544 168° South 430 495 37,000 -49 Descending Indianapolis Center
Sat 10:01:49 PM 38.6983 -87.3233 168° South 433 498 37,000 98 Level Indianapolis Center
Sat 10:02:50 PM 38.5822 -87.2944 169° South 427 491 37,200 393 Climbing Indianapolis Center
Sat 10:03:51 PM 38.4661 -87.2650 169° South 427 491 37,800 590 Climbing Indianapolis Center
Sat 10:04:52 PM 38.3500 -87.2381 170° South 430 495 38,400 496 Climbing Indianapolis Center
Sat 10:05:52 PM 38.2156 -87.1994 167° South 433 498 38,800 298 Climbing Indianapolis Center
Sat 10:06:53 PM 38.0953 -87.1703 169° South 430 495 39,000 98 Climbing Indianapolis Center
Sat 10:07:54 PM 37.9792 -87.1403 168° South 427 491 39,000  Level Indianapolis Center
Sat 10:08:55 PM 37.8614 -87.1094 168° South 431 496 39,000  Level Indianapolis Center
Sat 10:09:56 PM 37.7425 -87.0800 169° South 434 499 39,000  Level Indianapolis Center
Sat 10:10:56 PM 37.6222 -87.0483 168° South 439 505 39,000  Level Indianapolis Center
Sat 10:11:57 PM 37.5017 -87.0222 170° South 432 497 39,000  Level Indianapolis Center
Sat 10:12:58 PM 37.3867 -86.9936 169° South 418 481 39,000  Level Indianapolis Center
Sat 10:13:58 PM 37.2717 -86.9644 169° South 417 480 39,000 -50 Level Indianapolis Center
Sat 10:14:59 PM 37.1597 -86.9356 168° South 408 470 38,900  Descending Indianapolis Center
Sat 10:15:50 PM 37.0631 -86.9097 168° South 407 468 39,000 54 Climbing Memphis Center
Sat 10:16:50 PM 36.9561 -86.8858 170° South 407 468 39,000  Level Memphis Center
Sat 10:17:50 PM 36.8450 -86.8569 168° South 407 468 39,000  Level Memphis Center
Sat 10:18:50 PM 36.7358 -86.8281 168° South 402 463 39,000  Level Memphis Center
Sat 10:19:51 PM 36.6244 -86.8019 169° South 402 463 39,000  Level Memphis Center
Sat 10:20:50 PM 36.5236 -86.7756 168° South 414 476 39,000  Level Memphis Center
Sat 10:21:50 PM 36.4039 -86.7447 168° South 428 493 39,000  Level Memphis Center
Sat 10:22:50 PM 36.2739 -86.7144 169° South 439 505 39,000  Level Memphis Center
Sat 10:23:50 PM 36.1586 -86.6886 170° South 432 497 39,000  Level Memphis Center
Sat 10:24:50 PM 36.0486 -86.6422 161° South 418 481 39,000  Level Memphis Center
Sat 10:25:50 PM 35.9408 -86.5881 158° South 424 488 39,000  Level Memphis Center
Sat 10:26:51 PM 35.8306 -86.5344 158° South 424 488 39,000  Level Memphis Center
Sat 10:29:18 PM 35.5786 -86.4108 158° South 424 488 39,000  Level Atlanta Center
Sat 10:30:18 PM 35.4731 -86.3594 158° South 418 481 39,000  Level Atlanta Center
Sat 10:31:18 PM 35.3678 -86.3106 159° South 412 474 39,000  Level Atlanta Center
Sat 10:32:18 PM 35.2581 -86.2567 158° South 412 474 39,000  Level Atlanta Center
Sat 10:33:18 PM 35.1444 -86.1953 156° South 412 474 39,000  Level Atlanta Center
Sat 10:34:18 PM 35.0325 -86.1442 159° South 412 474 39,000  Level Atlanta Center
Sat 10:35:18 PM 34.9208 -86.0931 159° South 419 482 39,000  Level Atlanta Center
Sat 10:36:18 PM 34.8111 -86.0322 156° South 430 495 39,000  Level Atlanta Center
Sat 10:37:18 PM 34.6994 -85.9792 159° South 430 495 39,000  Level Atlanta Center
Sat 10:38:18 PM 34.5875 -85.9236 158° South 430 495 39,000  Level Atlanta Center
Sat 10:39:18 PM 34.4756 -85.8706 159° South 430 495 39,000  Level Atlanta Center
Sat 10:40:18 PM 34.3639 -85.8153 158° South 430 495 39,000  Level Atlanta Center
Sat 10:41:18 PM 34.2619 -85.7756 162° South 430 495 39,000  Level Atlanta Center
Sat 10:42:18 PM 34.1522 -85.7206 157° South 430 495 39,000  Level Atlanta Center
Sat 10:43:18 PM 34.0361 -85.6681 159° South 435 501 39,000  Level Atlanta Center
Sat 10:44:18 PM 33.9219 -85.6183 160° South 435 501 39,000  Level Atlanta Center
Sat 10:45:18 PM 33.8100 -85.5639 158° South 435 501 39,000  Level Atlanta Center
Sat 10:46:18 PM 33.6833 -85.5042 159° South 442 509 39,000  Level Atlanta Center
Sat 10:47:18 PM 33.5669 -85.4525 160° South 442 509 39,000  Level Atlanta Center
Sat 10:48:18 PM 33.4508 -85.3981 159° South 448 516 39,000  Level Atlanta Center
Sat 10:49:18 PM 33.3344 -85.3417 158° South 443 510 39,000  Level Atlanta Center
Sat 10:50:18 PM 33.2181 -85.2878 159° South 455 524 39,000  Level Atlanta Center
Sat 10:51:18 PM 33.0997 -85.2342 159° South 455 524 39,000  Level Atlanta Center
Sat 10:52:18 PM 32.9811 -85.1781 158° South 455 524 39,000  Level Atlanta Center
Sat 10:53:18 PM 32.8583 -85.1467 168° South 449 517 39,000  Level Atlanta Center
Sat 10:54:18 PM 32.7419 -85.0983 161° South 454 522 39,000  Level Atlanta Center
Sat 10:55:18 PM 32.6211 -85.0575 164° South 457 526 39,000  Level Atlanta Center
Sat 10:56:18 PM 32.4922 -85.0142 164° South 458 527 39,000  Level Atlanta Center
Sat 10:57:18 PM 32.3692 -84.9708 163° South 458 527 39,000  Level Atlanta Center
Sat 10:58:18 PM 32.2694 -84.9378 164° South 458 527 39,000  Level Atlanta Center
Sat 10:59:18 PM 32.1339 -84.8997 167° South 458 527 39,000  Level Atlanta Center
Sat 11:00:18 PM 32.0089 -84.8594 165° South 458 527 39,000  Level Atlanta Center
Sat 11:01:18 PM 31.8861 -84.8167 164° South 458 527 39,000  Level Atlanta Center
Sat 11:02:51 PM 31.6894 -84.7481 163° South 486 559 39,000  Level Jacksonville Center
Sat 11:03:51 PM 31.5669 -84.7067 164° South 474 545 39,000  Level Jacksonville Center
Sat 11:04:51 PM 31.4400 -84.6653 164° South 474 545 39,000  Level Jacksonville Center
Sat 11:05:51 PM 31.3153 -84.6239 164° South 469 540 39,000  Level Jacksonville Center
Sat 11:06:51 PM 31.1886 -84.5828 164° South 469 540 39,000  Level Jacksonville Center
Sat 11:07:51 PM 31.0706 -84.5175 155° Southeast 475 547 39,000  Level Jacksonville Center
Sat 11:08:51 PM 30.9544 -84.4478 153° Southeast 475 547 39,000  Level Jacksonville Center
Sat 11:09:51 PM 30.8361 -84.3806 154° Southeast 475 547 39,000  Level Jacksonville Center
Sat 11:10:51 PM 30.7158 -84.3086 153° Southeast 475 547 39,000  Level Jacksonville Center
Sat 11:11:51 PM 30.5997 -84.2417 154° Southeast 475 547 39,000 -50 Level Jacksonville Center
Sat 11:12:51 PM 30.4897 -84.1750 152° Southeast 460 529 38,900 -50 Descending Jacksonville Center
Sat 11:13:51 PM 30.3714 -84.1083 154° Southeast 460 529 38,900 50 Level Jacksonville Center
Sat 11:14:51 PM 30.2508 -84.0394 154° Southeast 465 535 39,000 50 Climbing Jacksonville Center
Sat 11:15:51 PM 30.1325 -83.9708 153° Southeast 465 535 39,000 -50 Level Jacksonville Center
Sat 11:16:51 PM 30.0142 -83.9047 154° Southeast 465 535 38,900 -50 Descending Jacksonville Center
Sat 11:17:51 PM 29.8997 -83.8389 153° Southeast 465 535 38,900 -150 Level Jacksonville Center
Sat 11:18:51 PM 29.7769 -83.7683 153° Southeast 465 535 38,600 -600 Descending Jacksonville Center
Sat 11:19:51 PM 29.6586 -83.7028 154° Southeast 465 535 37,700 -1,100 Descending Jacksonville Center
Sat 11:20:51 PM 29.5503 -83.6278 149° Southeast 465 535 36,400 -2,000 Descending Jacksonville Center
Sat 11:21:51 PM 29.4444 -83.5389 144° Southeast 465 535 33,700 -3,150 Descending Jacksonville Center
Sat 11:22:51 PM 29.3342 -83.4453 143° Southeast 482 555 30,100 -3,650 Descending Jacksonville Center
Sat 11:23:51 PM 29.2156 -83.3469 144° Southeast 482 555 26,400 -3,050 Descending Jacksonville Center
Sat 11:24:51 PM 29.1136 -83.2611 144° Southeast 475 547 24,000 -2,400 Descending Jacksonville Center
Sat 11:25:51 PM 29.0178 -83.1800 143° Southeast 451 519 21,600 -2,350 Descending Jacksonville Center
Sat 11:26:51 PM 28.9261 -83.1014 143° Southeast 430 495 19,300 -2,100 Descending Jacksonville Center
Sat 11:27:51 PM 28.8469 -83.0158 137° Southeast 413 475 17,400 -2,013 Descending Jacksonville Center
Sat 11:29:26 PM 28.7500 -82.8667 127° Southeast 366 421 14,100 -1,858 Descending Tampa TRACON
Sat 11:30:26 PM 28.6833 -82.8000 139° Southeast 345 397 12,600 -1,150 Descending Tampa TRACON
Sat 11:31:26 PM 28.6000 -82.7333 145° Southeast 312 359 11,800 -1,450 Descending Tampa TRACON
Sat 11:32:26 PM 28.5333 -82.7000 156° South 292 336 9,700 -2,150 Descending Tampa TRACON
Sat 11:33:26 PM 28.4667 -82.6667 156° South 282 325 7,500 -1,350 Descending Tampa TRACON
Sat 11:34:26 PM 28.3833 -82.6333 161° South 274 315 7,000 -250 Descending Tampa TRACON
Sat 11:35:26 PM 28.3167 -82.6000 156° South 273 314 7,000 -650 Level Tampa TRACON
Sat 11:36:26 PM 28.2500 -82.5667 156° South 272 313 5,700 -1,700 Descending Tampa TRACON
Sat 11:37:26 PM 28.1833 -82.5500 168° South 262 302 3,600 -1,550 Descending Tampa TRACON
Sat 11:38:26 PM 28.1167 -82.5167 156° South 228 262 2,600 -1,000 Descending Tampa TRACON

Login

Don't have an account? Register now (free) for customized features, flight alerts, and more!